sensor_id;sensor_type;location;lat;lon;timestamp;P1;durP1;ratioP1;P2;durP2;ratioP2
6394;SDS011;3230;42.588;23.358;2022-07-29T00:01:33;10.57;;;8.77;;
6394;SDS011;3230;42.588;23.358;2022-07-29T00:03:58;12.80;;;8.97;;
6394;SDS011;3230;42.588;23.358;2022-07-29T00:06:24;21.00;;;9.30;;
6394;SDS011;3230;42.588;23.358;2022-07-29T00:08:49;11.93;;;8.93;;
6394;SDS011;3230;42.588;23.358;2022-07-29T00:11:14;14.33;;;8.37;;
6394;SDS011;3230;42.588;23.358;2022-07-29T00:13:40;12.33;;;8.90;;
6394;SDS011;3230;42.588;23.358;2022-07-29T00:16:05;11.90;;;8.87;;
6394;SDS011;3230;42.588;23.358;2022-07-29T00:18:31;11.77;;;8.80;;
6394;SDS011;3230;42.588;23.358;2022-07-29T00:20:57;14.73;;;9.43;;
6394;SDS011;3230;42.588;23.358;2022-07-29T00:23:22;13.83;;;9.10;;
6394;SDS011;3230;42.588;23.358;2022-07-29T00:25:48;14.03;;;9.07;;
6394;SDS011;3230;42.588;23.358;2022-07-29T00:28:13;11.23;;;8.67;;
6394;SDS011;3230;42.588;23.358;2022-07-29T00:30:39;12.33;;;9.27;;
6394;SDS011;3230;42.588;23.358;2022-07-29T00:33:06;14.70;;;9.20;;
6394;SDS011;3230;42.588;23.358;2022-07-29T00:35:32;11.63;;;9.00;;
6394;SDS011;3230;42.588;23.358;2022-07-29T00:38:16;14.40;;;9.77;;
6394;SDS011;3230;42.588;23.358;2022-07-29T00:40:43;11.53;;;8.60;;
6394;SDS011;3230;42.588;23.358;2022-07-29T00:43:09;14.93;;;8.97;;
6394;SDS011;3230;42.588;23.358;2022-07-29T00:45:36;12.03;;;8.73;;
6394;SDS011;3230;42.588;23.358;2022-07-29T00:48:02;11.37;;;8.57;;
6394;SDS011;3230;42.588;23.358;2022-07-29T00:50:29;11.20;;;8.43;;
6394;SDS011;3230;42.588;23.358;2022-07-29T00:52:55;11.90;;;9.00;;
6394;SDS011;3230;42.588;23.358;2022-07-29T00:55:21;14.10;;;9.43;;
6394;SDS011;3230;42.588;23.358;2022-07-29T00:57:47;11.40;;;8.93;;
6394;SDS011;3230;42.588;23.358;2022-07-29T01:00:15;17.83;;;9.97;;
6394;SDS011;3230;42.588;23.358;2022-07-29T01:02:44;14.63;;;9.50;;
6394;SDS011;3230;42.588;23.358;2022-07-29T01:05:13;17.53;;;9.70;;
6394;SDS011;3230;42.588;23.358;2022-07-29T01:07:40;14.07;;;9.90;;
6394;SDS011;3230;42.588;23.358;2022-07-29T01:10:06;17.00;;;9.93;;
6394;SDS011;3230;42.588;23.358;2022-07-29T01:12:34;13.43;;;10.30;;
6394;SDS011;3230;42.588;23.358;2022-07-29T01:15:02;17.10;;;10.90;;
6394;SDS011;3230;42.588;23.358;2022-07-29T01:20:24;13.60;;;10.00;;
6394;SDS011;3230;42.588;23.358;2022-07-29T01:26:17;13.33;;;10.07;;
6394;SDS011;3230;42.588;23.358;2022-07-29T01:34:21;18.70;;;10.60;;
6394;SDS011;3230;42.588;23.358;2022-07-29T01:36:51;11.90;;;9.70;;
6394;SDS011;3230;42.588;23.358;2022-07-29T01:39:27;13.90;;;10.20;;
6394;SDS011;3230;42.588;23.358;2022-07-29T01:44:34;14.47;;;10.73;;
6394;SDS011;3230;42.588;23.358;2022-07-29T01:47:05;17.00;;;10.67;;
6394;SDS011;3230;42.588;23.358;2022-07-29T01:49:43;13.13;;;10.33;;
6394;SDS011;3230;42.588;23.358;2022-07-29T01:55:19;14.17;;;10.80;;
6394;SDS011;3230;42.588;23.358;2022-07-29T01:57:48;17.93;;;11.70;;
6394;SDS011;3230;42.588;23.358;2022-07-29T02:00:14;20.00;;;10.30;;
6394;SDS011;3230;42.588;23.358;2022-07-29T02:02:41;15.13;;;11.17;;
6394;SDS011;3230;42.588;23.358;2022-07-29T02:05:10;13.37;;;10.60;;
6394;SDS011;3230;42.588;23.358;2022-07-29T02:07:37;18.50;;;11.13;;
6394;SDS011;3230;42.588;23.358;2022-07-29T02:10:05;14.90;;;11.40;;
6394;SDS011;3230;42.588;23.358;2022-07-29T02:12:33;17.10;;;10.63;;
6394;SDS011;3230;42.588;23.358;2022-07-29T02:15:01;14.67;;;10.77;;
6394;SDS011;3230;42.588;23.358;2022-07-29T02:17:37;15.90;;;11.07;;
6394;SDS011;3230;42.588;23.358;2022-07-29T02:20:07;15.47;;;10.80;;
6394;SDS011;3230;42.588;23.358;2022-07-29T02:22:35;19.63;;;11.20;;
6394;SDS011;3230;42.588;23.358;2022-07-29T02:25:03;14.87;;;10.00;;
6394;SDS011;3230;42.588;23.358;2022-07-29T02:27:30;15.60;;;10.30;;
6394;SDS011;3230;42.588;23.358;2022-07-29T02:30:00;13.80;;;10.80;;
6394;SDS011;3230;42.588;23.358;2022-07-29T02:32:26;17.33;;;11.03;;
6394;SDS011;3230;42.588;23.358;2022-07-29T02:34:53;14.00;;;10.80;;
6394;SDS011;3230;42.588;23.358;2022-07-29T02:37:20;14.67;;;10.90;;
6394;SDS011;3230;42.588;23.358;2022-07-29T02:39:46;25.57;;;10.93;;
6394;SDS011;3230;42.588;23.358;2022-07-29T02:42:14;15.60;;;10.60;;
6394;SDS011;3230;42.588;23.358;2022-07-29T02:44:41;14.57;;;10.70;;
6394;SDS011;3230;42.588;23.358;2022-07-29T02:47:10;15.00;;;10.90;;
6394;SDS011;3230;42.588;23.358;2022-07-29T02:49:39;13.30;;;10.77;;
6394;SDS011;3230;42.588;23.358;2022-07-29T02:52:17;15.13;;;11.00;;
6394;SDS011;3230;42.588;23.358;2022-07-29T02:54:57;15.50;;;9.70;;
6394;SDS011;3230;42.588;23.358;2022-07-29T03:00:15;14.73;;;9.77;;
6394;SDS011;3230;42.588;23.358;2022-07-29T03:02:43;12.80;;;9.50;;
6394;SDS011;3230;42.588;23.358;2022-07-29T03:05:11;14.03;;;9.83;;
6394;SDS011;3230;42.588;23.358;2022-07-29T03:07:41;12.37;;;10.53;;
6394;SDS011;3230;42.588;23.358;2022-07-29T03:10:10;12.73;;;9.10;;
6394;SDS011;3230;42.588;23.358;2022-07-29T03:12:37;12.77;;;9.20;;
6394;SDS011;3230;42.588;23.358;2022-07-29T03:15:03;18.90;;;8.80;;
6394;SDS011;3230;42.588;23.358;2022-07-29T03:17:29;11.83;;;8.00;;
6394;SDS011;3230;42.588;23.358;2022-07-29T03:19:56;14.97;;;8.30;;
6394;SDS011;3230;42.588;23.358;2022-07-29T03:22:22;9.93;;;7.17;;
6394;SDS011;3230;42.588;23.358;2022-07-29T03:24:49;10.30;;;7.10;;
6394;SDS011;3230;42.588;23.358;2022-07-29T03:27:14;11.13;;;7.53;;
6394;SDS011;3230;42.588;23.358;2022-07-29T03:29:39;11.30;;;7.87;;
6394;SDS011;3230;42.588;23.358;2022-07-29T03:32:05;9.07;;;6.97;;
6394;SDS011;3230;42.588;23.358;2022-07-29T03:34:31;8.93;;;7.10;;
6394;SDS011;3230;42.588;23.358;2022-07-29T03:36:57;11.90;;;7.27;;
6394;SDS011;3230;42.588;23.358;2022-07-29T03:39:23;10.40;;;8.47;;
6394;SDS011;3230;42.588;23.358;2022-07-29T03:41:53;10.37;;;7.20;;
6394;SDS011;3230;42.588;23.358;2022-07-29T03:44:20;9.40;;;7.37;;
6394;SDS011;3230;42.588;23.358;2022-07-29T03:46:48;9.57;;;6.70;;
6394;SDS011;3230;42.588;23.358;2022-07-29T03:49:16;12.00;;;7.67;;
6394;SDS011;3230;42.588;23.358;2022-07-29T03:51:43;8.20;;;6.60;;
6394;SDS011;3230;42.588;23.358;2022-07-29T03:54:09;13.20;;;7.10;;
6394;SDS011;3230;42.588;23.358;2022-07-29T03:56:42;9.90;;;7.13;;
6394;SDS011;3230;42.588;23.358;2022-07-29T03:59:11;8.37;;;6.50;;
6394;SDS011;3230;42.588;23.358;2022-07-29T04:01:37;9.23;;;6.53;;
6394;SDS011;3230;42.588;23.358;2022-07-29T04:04:04;13.27;;;6.10;;
6394;SDS011;3230;42.588;23.358;2022-07-29T04:06:37;9.83;;;5.83;;
6394;SDS011;3230;42.588;23.358;2022-07-29T04:09:03;12.37;;;6.13;;
6394;SDS011;3230;42.588;23.358;2022-07-29T04:11:29;12.17;;;6.30;;
6394;SDS011;3230;42.588;23.358;2022-07-29T04:13:54;8.40;;;5.60;;
6394;SDS011;3230;42.588;23.358;2022-07-29T04:16:19;11.60;;;5.63;;
6394;SDS011;3230;42.588;23.358;2022-07-29T04:18:45;7.43;;;5.27;;
6394;SDS011;3230;42.588;23.358;2022-07-29T04:21:10;6.97;;;4.60;;
6394;SDS011;3230;42.588;23.358;2022-07-29T04:23:36;7.43;;;4.60;;
6394;SDS011;3230;42.588;23.358;2022-07-29T04:26:01;11.70;;;5.83;;
6394;SDS011;3230;42.588;23.358;2022-07-29T04:28:26;8.87;;;5.80;;
6394;SDS011;3230;42.588;23.358;2022-07-29T04:30:52;8.53;;;4.93;;
6394;SDS011;3230;42.588;23.358;2022-07-29T04:33:17;7.27;;;4.77;;
6394;SDS011;3230;42.588;23.358;2022-07-29T04:35:43;11.47;;;4.70;;
6394;SDS011;3230;42.588;23.358;2022-07-29T04:38:08;6.60;;;5.13;;
6394;SDS011;3230;42.588;23.358;2022-07-29T04:40:33;6.93;;;5.13;;
6394;SDS011;3230;42.588;23.358;2022-07-29T04:43:00;8.70;;;5.63;;
6394;SDS011;3230;42.588;23.358;2022-07-29T04:45:26;7.80;;;4.40;;
6394;SDS011;3230;42.588;23.358;2022-07-29T04:47:52;7.53;;;5.07;;
6394;SDS011;3230;42.588;23.358;2022-07-29T04:50:17;7.60;;;4.87;;
6394;SDS011;3230;42.588;23.358;2022-07-29T04:52:43;6.33;;;3.60;;
6394;SDS011;3230;42.588;23.358;2022-07-29T04:55:08;9.10;;;4.37;;
6394;SDS011;3230;42.588;23.358;2022-07-29T04:57:34;4.53;;;3.80;;
6394;SDS011;3230;42.588;23.358;2022-07-29T04:59:59;5.83;;;4.50;;
6394;SDS011;3230;42.588;23.358;2022-07-29T05:02:25;7.50;;;4.67;;
6394;SDS011;3230;42.588;23.358;2022-07-29T05:04:51;6.70;;;4.23;;
6394;SDS011;3230;42.588;23.358;2022-07-29T05:07:16;6.50;;;4.00;;
6394;SDS011;3230;42.588;23.358;2022-07-29T05:09:42;5.40;;;3.70;;
6394;SDS011;3230;42.588;23.358;2022-07-29T05:12:08;9.80;;;4.53;;
6394;SDS011;3230;42.588;23.358;2022-07-29T05:14:33;7.60;;;4.73;;
6394;SDS011;3230;42.588;23.358;2022-07-29T05:16:59;6.27;;;4.47;;
6394;SDS011;3230;42.588;23.358;2022-07-29T05:19:24;5.93;;;4.10;;
6394;SDS011;3230;42.588;23.358;2022-07-29T05:21:49;11.23;;;4.20;;
6394;SDS011;3230;42.588;23.358;2022-07-29T05:24:15;6.23;;;4.00;;
6394;SDS011;3230;42.588;23.358;2022-07-29T05:26:41;4.67;;;3.63;;
6394;SDS011;3230;42.588;23.358;2022-07-29T05:29:06;4.50;;;3.97;;
6394;SDS011;3230;42.588;23.358;2022-07-29T05:31:32;4.50;;;4.03;;
6394;SDS011;3230;42.588;23.358;2022-07-29T05:33:58;6.30;;;4.60;;
6394;SDS011;3230;42.588;23.358;2022-07-29T05:36:24;5.60;;;3.93;;
6394;SDS011;3230;42.588;23.358;2022-07-29T05:38:49;6.70;;;4.10;;
6394;SDS011;3230;42.588;23.358;2022-07-29T05:41:15;4.43;;;3.70;;
6394;SDS011;3230;42.588;23.358;2022-07-29T05:43:41;11.47;;;4.00;;
6394;SDS011;3230;42.588;23.358;2022-07-29T05:46:06;5.13;;;4.40;;
6394;SDS011;3230;42.588;23.358;2022-07-29T05:48:32;7.33;;;4.20;;
6394;SDS011;3230;42.588;23.358;2022-07-29T05:50:57;6.20;;;4.47;;
6394;SDS011;3230;42.588;23.358;2022-07-29T05:53:23;5.50;;;4.37;;
6394;SDS011;3230;42.588;23.358;2022-07-29T05:55:48;5.13;;;4.40;;
6394;SDS011;3230;42.588;23.358;2022-07-29T05:58:14;8.00;;;4.33;;
6394;SDS011;3230;42.588;23.358;2022-07-29T06:00:40;5.27;;;4.53;;
6394;SDS011;3230;42.588;23.358;2022-07-29T06:03:05;8.40;;;4.93;;
6394;SDS011;3230;42.588;23.358;2022-07-29T06:05:31;5.43;;;4.43;;
6394;SDS011;3230;42.588;23.358;2022-07-29T06:07:56;6.60;;;4.43;;
6394;SDS011;3230;42.588;23.358;2022-07-29T06:10:21;6.43;;;4.00;;
6394;SDS011;3230;42.588;23.358;2022-07-29T06:12:47;8.03;;;4.80;;
6394;SDS011;3230;42.588;23.358;2022-07-29T06:15:13;4.90;;;4.20;;
6394;SDS011;3230;42.588;23.358;2022-07-29T06:17:38;5.80;;;4.47;;
6394;SDS011;3230;42.588;23.358;2022-07-29T06:20:04;4.80;;;4.30;;
6394;SDS011;3230;42.588;23.358;2022-07-29T06:22:29;4.87;;;4.40;;
6394;SDS011;3230;42.588;23.358;2022-07-29T06:24:55;5.53;;;4.40;;
6394;SDS011;3230;42.588;23.358;2022-07-29T06:27:20;5.03;;;4.43;;
6394;SDS011;3230;42.588;23.358;2022-07-29T06:32:48;4.50;;;4.10;;
6394;SDS011;3230;42.588;23.358;2022-07-29T06:35:14;6.10;;;4.47;;
6394;SDS011;3230;42.588;23.358;2022-07-29T06:37:39;4.70;;;4.23;;
6394;SDS011;3230;42.588;23.358;2022-07-29T06:40:05;4.60;;;4.10;;
6394;SDS011;3230;42.588;23.358;2022-07-29T06:42:49;4.90;;;4.30;;
6394;SDS011;3230;42.588;23.358;2022-07-29T06:45:15;4.73;;;4.30;;
6394;SDS011;3230;42.588;23.358;2022-07-29T06:47:41;5.77;;;4.10;;
6394;SDS011;3230;42.588;23.358;2022-07-29T06:50:06;8.00;;;4.13;;
6394;SDS011;3230;42.588;23.358;2022-07-29T06:52:33;5.27;;;4.70;;
6394;SDS011;3230;42.588;23.358;2022-07-29T06:54:58;5.80;;;4.90;;
6394;SDS011;3230;42.588;23.358;2022-07-29T06:57:24;5.37;;;4.60;;
6394;SDS011;3230;42.588;23.358;2022-07-29T06:59:49;9.03;;;5.00;;
6394;SDS011;3230;42.588;23.358;2022-07-29T07:02:15;6.67;;;4.67;;
6394;SDS011;3230;42.588;23.358;2022-07-29T07:04:40;5.17;;;4.70;;
6394;SDS011;3230;42.588;23.358;2022-07-29T07:07:06;5.27;;;4.47;;
6394;SDS011;3230;42.588;23.358;2022-07-29T07:09:31;5.40;;;4.90;;
6394;SDS011;3230;42.588;23.358;2022-07-29T07:11:57;6.27;;;4.87;;
6394;SDS011;3230;42.588;23.358;2022-07-29T07:14:22;4.60;;;4.20;;
6394;SDS011;3230;42.588;23.358;2022-07-29T07:16:48;6.60;;;4.80;;
6394;SDS011;3230;42.588;23.358;2022-07-29T07:19:13;4.97;;;4.47;;
6394;SDS011;3230;42.588;23.358;2022-07-29T07:21:39;6.73;;;4.20;;
6394;SDS011;3230;42.588;23.358;2022-07-29T07:24:04;5.87;;;4.33;;
6394;SDS011;3230;42.588;23.358;2022-07-29T07:26:30;5.30;;;4.80;;
6394;SDS011;3230;42.588;23.358;2022-07-29T07:28:55;5.70;;;4.20;;
6394;SDS011;3230;42.588;23.358;2022-07-29T07:31:21;8.63;;;4.63;;
6394;SDS011;3230;42.588;23.358;2022-07-29T07:33:47;5.60;;;4.57;;
6394;SDS011;3230;42.588;23.358;2022-07-29T07:36:12;9.70;;;4.50;;
6394;SDS011;3230;42.588;23.358;2022-07-29T07:38:38;12.90;;;4.60;;
6394;SDS011;3230;42.588;23.358;2022-07-29T07:41:03;5.63;;;4.50;;
6394;SDS011;3230;42.588;23.358;2022-07-29T07:43:29;5.87;;;4.67;;
6394;SDS011;3230;42.588;23.358;2022-07-29T07:45:55;6.03;;;4.57;;
6394;SDS011;3230;42.588;23.358;2022-07-29T07:48:20;5.40;;;4.40;;
6394;SDS011;3230;42.588;23.358;2022-07-29T07:50:46;10.70;;;4.70;;
6394;SDS011;3230;42.588;23.358;2022-07-29T07:53:11;5.07;;;4.27;;
6394;SDS011;3230;42.588;23.358;2022-07-29T07:55:43;7.43;;;4.10;;
6394;SDS011;3230;42.588;23.358;2022-07-29T07:58:09;4.77;;;4.37;;
6394;SDS011;3230;42.588;23.358;2022-07-29T08:00:34;5.60;;;3.83;;
6394;SDS011;3230;42.588;23.358;2022-07-29T08:03:00;4.03;;;3.63;;
6394;SDS011;3230;42.588;23.358;2022-07-29T08:05:25;4.77;;;3.80;;
6394;SDS011;3230;42.588;23.358;2022-07-29T08:07:51;4.93;;;4.30;;
6394;SDS011;3230;42.588;23.358;2022-07-29T08:10:17;4.73;;;3.90;;
6394;SDS011;3230;42.588;23.358;2022-07-29T08:13:04;7.97;;;4.30;;
6394;SDS011;3230;42.588;23.358;2022-07-29T08:15:30;4.00;;;3.60;;
6394;SDS011;3230;42.588;23.358;2022-07-29T08:17:56;5.23;;;3.73;;
6394;SDS011;3230;42.588;23.358;2022-07-29T08:20:21;4.70;;;4.27;;
6394;SDS011;3230;42.588;23.358;2022-07-29T08:22:47;5.00;;;3.57;;
6394;SDS011;3230;42.588;23.358;2022-07-29T08:25:12;4.87;;;4.37;;
6394;SDS011;3230;42.588;23.358;2022-07-29T08:27:38;4.20;;;3.80;;
6394;SDS011;3230;42.588;23.358;2022-07-29T08:30:03;5.50;;;4.37;;
6394;SDS011;3230;42.588;23.358;2022-07-29T08:32:29;4.97;;;3.90;;
6394;SDS011;3230;42.588;23.358;2022-07-29T08:34:56;7.77;;;3.83;;
6394;SDS011;3230;42.588;23.358;2022-07-29T08:37:21;6.90;;;4.33;;
6394;SDS011;3230;42.588;23.358;2022-07-29T08:39:47;4.50;;;4.10;;
6394;SDS011;3230;42.588;23.358;2022-07-29T08:42:12;4.73;;;3.70;;
6394;SDS011;3230;42.588;23.358;2022-07-29T08:44:38;4.60;;;4.20;;
6394;SDS011;3230;42.588;23.358;2022-07-29T08:47:03;8.53;;;4.13;;
6394;SDS011;3230;42.588;23.358;2022-07-29T08:49:29;9.60;;;4.20;;
6394;SDS011;3230;42.588;23.358;2022-07-29T08:51:55;4.57;;;4.17;;
6394;SDS011;3230;42.588;23.358;2022-07-29T08:54:23;4.43;;;4.03;;
6394;SDS011;3230;42.588;23.358;2022-07-29T08:56:49;4.17;;;3.70;;
6394;SDS011;3230;42.588;23.358;2022-07-29T08:59:16;4.50;;;4.10;;
6394;SDS011;3230;42.588;23.358;2022-07-29T09:01:49;4.83;;;4.10;;
6394;SDS011;3230;42.588;23.358;2022-07-29T09:04:17;8.53;;;4.40;;
6394;SDS011;3230;42.588;23.358;2022-07-29T09:06:45;4.30;;;3.90;;
6394;SDS011;3230;42.588;23.358;2022-07-29T09:09:14;5.07;;;4.57;;
6394;SDS011;3230;42.588;23.358;2022-07-29T09:11:40;4.43;;;4.03;;
6394;SDS011;3230;42.588;23.358;2022-07-29T09:14:07;6.53;;;4.40;;
6394;SDS011;3230;42.588;23.358;2022-07-29T09:19:21;6.83;;;4.50;;
6394;SDS011;3230;42.588;23.358;2022-07-29T09:21:54;9.50;;;5.07;;
6394;SDS011;3230;42.588;23.358;2022-07-29T09:24:45;5.67;;;4.80;;
6394;SDS011;3230;42.588;23.358;2022-07-29T09:29:45;6.20;;;5.33;;
6394;SDS011;3230;42.588;23.358;2022-07-29T09:32:11;12.27;;;5.30;;
6394;SDS011;3230;42.588;23.358;2022-07-29T09:34:37;7.20;;;4.97;;
6394;SDS011;3230;42.588;23.358;2022-07-29T09:37:03;6.23;;;5.13;;
6394;SDS011;3230;42.588;23.358;2022-07-29T09:39:37;6.10;;;4.50;;
6394;SDS011;3230;42.588;23.358;2022-07-29T09:42:10;8.97;;;5.47;;
6394;SDS011;3230;42.588;23.358;2022-07-29T09:44:44;7.10;;;4.50;;
6394;SDS011;3230;42.588;23.358;2022-07-29T09:47:11;5.83;;;5.00;;
6394;SDS011;3230;42.588;23.358;2022-07-29T09:49:53;9.17;;;5.47;;
6394;SDS011;3230;42.588;23.358;2022-07-29T09:52:22;6.07;;;4.80;;
6394;SDS011;3230;42.588;23.358;2022-07-29T09:54:49;6.67;;;5.00;;
6394;SDS011;3230;42.588;23.358;2022-07-29T09:57:28;7.20;;;5.20;;
6394;SDS011;3230;42.588;23.358;2022-07-29T10:02:22;5.97;;;5.07;;
6394;SDS011;3230;42.588;23.358;2022-07-29T10:04:52;10.60;;;5.63;;
6394;SDS011;3230;42.588;23.358;2022-07-29T10:07:17;6.87;;;5.27;;
6394;SDS011;3230;42.588;23.358;2022-07-29T10:09:52;7.00;;;5.20;;
6394;SDS011;3230;42.588;23.358;2022-07-29T10:12:22;7.40;;;5.20;;
6394;SDS011;3230;42.588;23.358;2022-07-29T10:14:48;10.63;;;5.43;;
6394;SDS011;3230;42.588;23.358;2022-07-29T10:17:16;10.20;;;5.17;;
6394;SDS011;3230;42.588;23.358;2022-07-29T10:19:43;6.00;;;4.97;;
6394;SDS011;3230;42.588;23.358;2022-07-29T10:22:10;6.40;;;4.90;;
6394;SDS011;3230;42.588;23.358;2022-07-29T10:24:36;7.63;;;5.10;;
6394;SDS011;3230;42.588;23.358;2022-07-29T10:27:05;8.27;;;5.40;;
6394;SDS011;3230;42.588;23.358;2022-07-29T10:29:33;14.03;;;5.20;;
6394;SDS011;3230;42.588;23.358;2022-07-29T10:40:04;4.97;;;4.10;;
6394;SDS011;3230;42.588;23.358;2022-07-29T10:43:31;8.10;;;5.27;;
6394;SDS011;3230;42.588;23.358;2022-07-29T10:45:59;6.83;;;4.40;;
6394;SDS011;3230;42.588;23.358;2022-07-29T10:48:25;6.37;;;4.93;;
6394;SDS011;3230;42.588;23.358;2022-07-29T10:50:51;5.53;;;4.77;;
6394;SDS011;3230;42.588;23.358;2022-07-29T10:53:20;6.90;;;4.40;;
6394;SDS011;3230;42.588;23.358;2022-07-29T10:55:50;6.10;;;4.97;;
6394;SDS011;3230;42.588;23.358;2022-07-29T10:58:17;6.53;;;4.70;;
6394;SDS011;3230;42.588;23.358;2022-07-29T11:00:51;6.87;;;4.63;;
6394;SDS011;3230;42.588;23.358;2022-07-29T11:06:05;5.00;;;4.50;;
6394;SDS011;3230;42.588;23.358;2022-07-29T11:08:31;6.10;;;5.07;;
6394;SDS011;3230;42.588;23.358;2022-07-29T11:16:08;7.63;;;4.70;;
6394;SDS011;3230;42.588;23.358;2022-07-29T11:18:34;6.37;;;4.70;;
6394;SDS011;3230;42.588;23.358;2022-07-29T11:20:59;6.90;;;5.40;;
6394;SDS011;3230;42.588;23.358;2022-07-29T11:28:39;7.93;;;4.80;;
6394;SDS011;3230;42.588;23.358;2022-07-29T11:31:12;7.03;;;4.63;;
6394;SDS011;3230;42.588;23.358;2022-07-29T11:33:38;5.40;;;4.67;;
6394;SDS011;3230;42.588;23.358;2022-07-29T11:36:11;6.40;;;4.77;;
6394;SDS011;3230;42.588;23.358;2022-07-29T11:38:38;5.43;;;4.33;;
6394;SDS011;3230;42.588;23.358;2022-07-29T11:49:23;6.93;;;5.30;;
6394;SDS011;3230;42.588;23.358;2022-07-29T11:51:54;7.20;;;5.30;;
6394;SDS011;3230;42.588;23.358;2022-07-29T11:54:31;6.70;;;5.60;;
6394;SDS011;3230;42.588;23.358;2022-07-29T11:56:59;8.00;;;5.43;;
6394;SDS011;3230;42.588;23.358;2022-07-29T11:59:25;6.43;;;5.10;;
6394;SDS011;3230;42.588;23.358;2022-07-29T12:01:55;6.40;;;5.27;;
6394;SDS011;3230;42.588;23.358;2022-07-29T12:04:21;6.83;;;5.43;;
6394;SDS011;3230;42.588;23.358;2022-07-29T12:06:49;7.43;;;5.33;;
6394;SDS011;3230;42.588;23.358;2022-07-29T12:09:19;8.47;;;5.57;;
6394;SDS011;3230;42.588;23.358;2022-07-29T12:11:46;8.30;;;5.83;;
6394;SDS011;3230;42.588;23.358;2022-07-29T12:19:59;7.87;;;5.00;;
6394;SDS011;3230;42.588;23.358;2022-07-29T12:22:29;8.13;;;5.40;;
6394;SDS011;3230;42.588;23.358;2022-07-29T12:25:01;11.70;;;5.10;;
6394;SDS011;3230;42.588;23.358;2022-07-29T12:27:34;6.40;;;5.47;;
6394;SDS011;3230;42.588;23.358;2022-07-29T12:30:05;8.43;;;5.80;;
6394;SDS011;3230;42.588;23.358;2022-07-29T12:32:51;9.03;;;6.07;;
6394;SDS011;3230;42.588;23.358;2022-07-29T12:35:18;8.10;;;5.93;;
6394;SDS011;3230;42.588;23.358;2022-07-29T12:37:45;8.50;;;5.53;;
6394;SDS011;3230;42.588;23.358;2022-07-29T12:40:16;7.67;;;5.70;;
6394;SDS011;3230;42.588;23.358;2022-07-29T12:45:38;7.60;;;5.87;;
6394;SDS011;3230;42.588;23.358;2022-07-29T12:48:05;7.00;;;5.20;;
6394;SDS011;3230;42.588;23.358;2022-07-29T12:50:33;7.50;;;5.80;;
6394;SDS011;3230;42.588;23.358;2022-07-29T12:53:10;9.57;;;5.53;;
6394;SDS011;3230;42.588;23.358;2022-07-29T12:55:37;10.00;;;5.37;;
6394;SDS011;3230;42.588;23.358;2022-07-29T12:58:07;19.50;;;5.70;;
6394;SDS011;3230;42.588;23.358;2022-07-29T13:00:33;6.30;;;5.30;;
6394;SDS011;3230;42.588;23.358;2022-07-29T13:02:59;7.53;;;5.80;;
6394;SDS011;3230;42.588;23.358;2022-07-29T13:05:39;6.70;;;5.50;;
6394;SDS011;3230;42.588;23.358;2022-07-29T13:08:15;9.67;;;6.53;;
6394;SDS011;3230;42.588;23.358;2022-07-29T13:10:44;9.77;;;6.20;;
6394;SDS011;3230;42.588;23.358;2022-07-29T13:13:11;8.60;;;5.30;;
6394;SDS011;3230;42.588;23.358;2022-07-29T13:15:44;7.90;;;5.10;;
6394;SDS011;3230;42.588;23.358;2022-07-29T13:18:33;9.87;;;5.10;;
6394;SDS011;3230;42.588;23.358;2022-07-29T13:21:12;6.50;;;5.30;;
6394;SDS011;3230;42.588;23.358;2022-07-29T13:23:40;7.40;;;5.47;;
6394;SDS011;3230;42.588;23.358;2022-07-29T13:26:06;6.47;;;5.67;;
6394;SDS011;3230;42.588;23.358;2022-07-29T13:28:36;6.10;;;5.17;;
6394;SDS011;3230;42.588;23.358;2022-07-29T13:31:02;8.63;;;5.70;;
6394;SDS011;3230;42.588;23.358;2022-07-29T13:33:28;6.57;;;5.40;;
6394;SDS011;3230;42.588;23.358;2022-07-29T13:35:53;6.53;;;4.77;;
6394;SDS011;3230;42.588;23.358;2022-07-29T13:38:19;8.03;;;4.97;;
6394;SDS011;3230;42.588;23.358;2022-07-29T13:40:44;7.43;;;4.83;;
6394;SDS011;3230;42.588;23.358;2022-07-29T13:43:10;10.93;;;4.83;;
6394;SDS011;3230;42.588;23.358;2022-07-29T13:45:36;12.60;;;5.77;;
6394;SDS011;3230;42.588;23.358;2022-07-29T13:48:02;7.10;;;5.60;;
6394;SDS011;3230;42.588;23.358;2022-07-29T13:50:27;6.17;;;5.50;;
6394;SDS011;3230;42.588;23.358;2022-07-29T13:52:53;6.07;;;5.33;;
6394;SDS011;3230;42.588;23.358;2022-07-29T13:55:18;11.47;;;5.70;;
6394;SDS011;3230;42.588;23.358;2022-07-29T13:57:45;7.27;;;5.80;;
6394;SDS011;3230;42.588;23.358;2022-07-29T14:00:11;7.20;;;5.50;;
6394;SDS011;3230;42.588;23.358;2022-07-29T14:02:37;7.70;;;5.90;;
6394;SDS011;3230;42.588;23.358;2022-07-29T14:05:03;7.37;;;5.63;;
6394;SDS011;3230;42.588;23.358;2022-07-29T14:07:30;11.60;;;6.90;;
6394;SDS011;3230;42.588;23.358;2022-07-29T14:09:55;9.33;;;6.77;;
6394;SDS011;3230;42.588;23.358;2022-07-29T14:12:21;9.73;;;6.50;;
6394;SDS011;3230;42.588;23.358;2022-07-29T14:14:47;9.10;;;6.40;;
6394;SDS011;3230;42.588;23.358;2022-07-29T14:17:13;6.93;;;6.23;;
6394;SDS011;3230;42.588;23.358;2022-07-29T14:19:39;7.73;;;5.90;;
6394;SDS011;3230;42.588;23.358;2022-07-29T14:22:05;9.43;;;6.30;;
6394;SDS011;3230;42.588;23.358;2022-07-29T14:24:31;8.50;;;6.40;;
6394;SDS011;3230;42.588;23.358;2022-07-29T14:26:56;7.80;;;6.70;;
6394;SDS011;3230;42.588;23.358;2022-07-29T14:29:22;8.50;;;6.43;;
6394;SDS011;3230;42.588;23.358;2022-07-29T14:31:48;6.53;;;5.83;;
6394;SDS011;3230;42.588;23.358;2022-07-29T14:34:13;7.80;;;6.47;;
6394;SDS011;3230;42.588;23.358;2022-07-29T14:36:40;7.00;;;5.70;;
6394;SDS011;3230;42.588;23.358;2022-07-29T14:39:06;8.07;;;5.90;;
6394;SDS011;3230;42.588;23.358;2022-07-29T14:41:32;8.90;;;6.30;;
6394;SDS011;3230;42.588;23.358;2022-07-29T14:43:57;7.77;;;5.90;;
6394;SDS011;3230;42.588;23.358;2022-07-29T14:46:25;8.20;;;6.70;;
6394;SDS011;3230;42.588;23.358;2022-07-29T14:48:51;11.97;;;6.20;;
6394;SDS011;3230;42.588;23.358;2022-07-29T14:51:17;8.13;;;6.23;;
6394;SDS011;3230;42.588;23.358;2022-07-29T14:53:43;7.37;;;6.27;;
6394;SDS011;3230;42.588;23.358;2022-07-29T14:56:08;9.17;;;5.83;;
6394;SDS011;3230;42.588;23.358;2022-07-29T14:58:34;9.13;;;6.20;;
6394;SDS011;3230;42.588;23.358;2022-07-29T15:00:59;7.90;;;6.00;;
6394;SDS011;3230;42.588;23.358;2022-07-29T15:03:26;6.90;;;6.00;;
6394;SDS011;3230;42.588;23.358;2022-07-29T15:05:52;10.60;;;6.33;;
6394;SDS011;3230;42.588;23.358;2022-07-29T15:08:18;7.50;;;6.13;;
6394;SDS011;3230;42.588;23.358;2022-07-29T15:10:43;9.77;;;6.40;;
6394;SDS011;3230;42.588;23.358;2022-07-29T15:13:09;7.90;;;6.80;;
6394;SDS011;3230;42.588;23.358;2022-07-29T15:15:34;8.33;;;6.90;;
6394;SDS011;3230;42.588;23.358;2022-07-29T15:18:00;14.53;;;7.00;;
6394;SDS011;3230;42.588;23.358;2022-07-29T15:20:26;11.37;;;7.60;;
6394;SDS011;3230;42.588;23.358;2022-07-29T15:22:52;8.87;;;6.50;;
6394;SDS011;3230;42.588;23.358;2022-07-29T15:25:20;10.50;;;7.10;;
6394;SDS011;3230;42.588;23.358;2022-07-29T15:27:49;14.53;;;7.23;;
6394;SDS011;3230;42.588;23.358;2022-07-29T15:30:14;15.20;;;8.00;;
6394;SDS011;3230;42.588;23.358;2022-07-29T15:32:42;10.60;;;7.77;;
6394;SDS011;3230;42.588;23.358;2022-07-29T15:35:08;10.13;;;7.53;;
6394;SDS011;3230;42.588;23.358;2022-07-29T15:37:35;11.40;;;7.47;;
6394;SDS011;3230;42.588;23.358;2022-07-29T15:40:01;8.30;;;6.40;;
6394;SDS011;3230;42.588;23.358;2022-07-29T15:42:27;9.00;;;7.00;;
6394;SDS011;3230;42.588;23.358;2022-07-29T15:44:52;15.00;;;8.73;;
6394;SDS011;3230;42.588;23.358;2022-07-29T15:47:18;8.70;;;6.80;;
6394;SDS011;3230;42.588;23.358;2022-07-29T15:49:43;10.97;;;6.70;;
6394;SDS011;3230;42.588;23.358;2022-07-29T15:52:09;10.10;;;6.60;;
6394;SDS011;3230;42.588;23.358;2022-07-29T15:54:35;11.03;;;6.67;;
6394;SDS011;3230;42.588;23.358;2022-07-29T15:57:03;9.00;;;6.70;;
6394;SDS011;3230;42.588;23.358;2022-07-29T15:59:29;11.10;;;6.87;;
6394;SDS011;3230;42.588;23.358;2022-07-29T16:01:55;12.67;;;7.90;;
6394;SDS011;3230;42.588;23.358;2022-07-29T16:04:21;14.30;;;8.97;;
6394;SDS011;3230;42.588;23.358;2022-07-29T16:06:46;11.80;;;7.47;;